sensor_id;sensor_type;location;lat;lon;timestamp;P1;durP1;ratioP1;P2;durP2;ratioP2
12535;SDS011;6334;48.696;2.114;2022-10-28T00:00:29;8.30;;;4.47;;
12535;SDS011;6334;48.696;2.114;2022-10-28T00:03:01;6.50;;;3.83;;
12535;SDS011;6334;48.696;2.114;2022-10-28T00:05:34;8.73;;;3.97;;
12535;SDS011;6334;48.696;2.114;2022-10-28T00:08:05;8.93;;;4.10;;
12535;SDS011;6334;48.696;2.114;2022-10-28T00:10:35;9.27;;;3.90;;
12535;SDS011;6334;48.696;2.114;2022-10-28T00:13:06;8.13;;;4.00;;
12535;SDS011;6334;48.696;2.114;2022-10-28T00:15:36;8.57;;;3.83;;
12535;SDS011;6334;48.696;2.114;2022-10-28T00:18:07;8.60;;;3.73;;
12535;SDS011;6334;48.696;2.114;2022-10-28T00:20:37;7.50;;;3.67;;
12535;SDS011;6334;48.696;2.114;2022-10-28T00:23:07;8.47;;;3.77;;
12535;SDS011;6334;48.696;2.114;2022-10-28T00:28:42;5.77;;;3.70;;
12535;SDS011;6334;48.696;2.114;2022-10-28T00:31:12;5.73;;;3.80;;
12535;SDS011;6334;48.696;2.114;2022-10-28T00:33:42;8.67;;;4.00;;
12535;SDS011;6334;48.696;2.114;2022-10-28T00:36:17;8.73;;;3.90;;
12535;SDS011;6334;48.696;2.114;2022-10-28T00:38:50;9.10;;;3.83;;
12535;SDS011;6334;48.696;2.114;2022-10-28T00:41:21;7.03;;;4.00;;
12535;SDS011;6334;48.696;2.114;2022-10-28T00:43:51;8.27;;;3.70;;
12535;SDS011;6334;48.696;2.114;2022-10-28T00:46:27;6.60;;;3.53;;
12535;SDS011;6334;48.696;2.114;2022-10-28T00:49:00;7.90;;;3.67;;
12535;SDS011;6334;48.696;2.114;2022-10-28T00:51:29;8.47;;;4.00;;
12535;SDS011;6334;48.696;2.114;2022-10-28T00:54:00;5.20;;;3.53;;
12535;SDS011;6334;48.696;2.114;2022-10-28T00:56:32;9.23;;;3.90;;
12535;SDS011;6334;48.696;2.114;2022-10-28T00:59:01;9.17;;;4.30;;
12535;SDS011;6334;48.696;2.114;2022-10-28T01:01:31;9.10;;;4.30;;
12535;SDS011;6334;48.696;2.114;2022-10-28T01:04:02;9.20;;;3.97;;
12535;SDS011;6334;48.696;2.114;2022-10-28T01:06:32;7.47;;;3.97;;
12535;SDS011;6334;48.696;2.114;2022-10-28T01:09:04;8.07;;;4.00;;
12535;SDS011;6334;48.696;2.114;2022-10-28T01:14:11;10.87;;;4.07;;
12535;SDS011;6334;48.696;2.114;2022-10-28T01:25:05;13.23;;;4.30;;
12535;SDS011;6334;48.696;2.114;2022-10-28T01:30:20;9.37;;;3.70;;
12535;SDS011;6334;48.696;2.114;2022-10-28T01:41:37;9.03;;;4.47;;
12535;SDS011;6334;48.696;2.114;2022-10-28T01:43:47;9.87;;;4.00;;
12535;SDS011;6334;48.696;2.114;2022-10-28T01:48:58;9.60;;;3.90;;
12535;SDS011;6334;48.696;2.114;2022-10-28T01:51:29;6.93;;;4.40;;
12535;SDS011;6334;48.696;2.114;2022-10-28T01:53:58;10.13;;;4.53;;
12535;SDS011;6334;48.696;2.114;2022-10-28T01:56:30;9.20;;;3.87;;
12535;SDS011;6334;48.696;2.114;2022-10-28T01:58:59;7.17;;;3.67;;
12535;SDS011;6334;48.696;2.114;2022-10-28T02:01:30;8.13;;;3.93;;
12535;SDS011;6334;48.696;2.114;2022-10-28T02:04:01;11.73;;;4.20;;
12535;SDS011;6334;48.696;2.114;2022-10-28T02:06:31;6.10;;;4.03;;
12535;SDS011;6334;48.696;2.114;2022-10-28T02:11:52;7.97;;;3.57;;
12535;SDS011;6334;48.696;2.114;2022-10-28T02:19:37;5.93;;;3.87;;
12535;SDS011;6334;48.696;2.114;2022-10-28T02:27:40;10.47;;;3.93;;
12535;SDS011;6334;48.696;2.114;2022-10-28T02:30:17;7.23;;;4.17;;
12535;SDS011;6334;48.696;2.114;2022-10-28T02:32:57;6.43;;;4.33;;
12535;SDS011;6334;48.696;2.114;2022-10-28T02:35:30;10.83;;;4.20;;
12535;SDS011;6334;48.696;2.114;2022-10-28T02:38:00;9.03;;;4.00;;
12535;SDS011;6334;48.696;2.114;2022-10-28T02:40:30;12.13;;;4.00;;
12535;SDS011;6334;48.696;2.114;2022-10-28T02:43:02;7.23;;;4.30;;
12535;SDS011;6334;48.696;2.114;2022-10-28T02:45:36;9.63;;;4.60;;
12535;SDS011;6334;48.696;2.114;2022-10-28T02:48:13;9.57;;;4.13;;
12535;SDS011;6334;48.696;2.114;2022-10-28T02:50:52;6.87;;;3.67;;
12535;SDS011;6334;48.696;2.114;2022-10-28T02:53:22;7.17;;;4.40;;
12535;SDS011;6334;48.696;2.114;2022-10-28T02:55:51;8.33;;;4.13;;
12535;SDS011;6334;48.696;2.114;2022-10-28T02:58:21;6.97;;;4.03;;
12535;SDS011;6334;48.696;2.114;2022-10-28T03:00:52;11.23;;;4.50;;
12535;SDS011;6334;48.696;2.114;2022-10-28T03:03:22;9.03;;;4.43;;
12535;SDS011;6334;48.696;2.114;2022-10-28T03:05:53;9.23;;;4.30;;
12535;SDS011;6334;48.696;2.114;2022-10-28T03:08:23;6.70;;;3.97;;
12535;SDS011;6334;48.696;2.114;2022-10-28T03:10:53;6.03;;;3.93;;
12535;SDS011;6334;48.696;2.114;2022-10-28T03:13:24;8.70;;;4.00;;
12535;SDS011;6334;48.696;2.114;2022-10-28T03:15:54;8.40;;;4.13;;
12535;SDS011;6334;48.696;2.114;2022-10-28T03:18:25;6.27;;;4.13;;
12535;SDS011;6334;48.696;2.114;2022-10-28T03:20:55;10.67;;;3.90;;
12535;SDS011;6334;48.696;2.114;2022-10-28T03:23:26;10.70;;;4.10;;
12535;SDS011;6334;48.696;2.114;2022-10-28T03:25:56;6.90;;;4.37;;
12535;SDS011;6334;48.696;2.114;2022-10-28T03:28:27;10.17;;;4.13;;
12535;SDS011;6334;48.696;2.114;2022-10-28T03:30:57;10.27;;;4.17;;
12535;SDS011;6334;48.696;2.114;2022-10-28T03:33:28;8.70;;;3.90;;
12535;SDS011;6334;48.696;2.114;2022-10-28T03:35:58;9.23;;;4.43;;
12535;SDS011;6334;48.696;2.114;2022-10-28T03:38:29;7.80;;;4.33;;
12535;SDS011;6334;48.696;2.114;2022-10-28T03:40:59;9.30;;;4.33;;
12535;SDS011;6334;48.696;2.114;2022-10-28T03:43:30;9.03;;;4.47;;
12535;SDS011;6334;48.696;2.114;2022-10-28T03:46:00;12.07;;;4.63;;
12535;SDS011;6334;48.696;2.114;2022-10-28T03:48:31;6.53;;;4.13;;
12535;SDS011;6334;48.696;2.114;2022-10-28T03:51:01;8.60;;;4.43;;
12535;SDS011;6334;48.696;2.114;2022-10-28T03:53:32;10.53;;;4.50;;
12535;SDS011;6334;48.696;2.114;2022-10-28T03:56:02;7.27;;;4.17;;
12535;SDS011;6334;48.696;2.114;2022-10-28T03:58:32;9.87;;;4.07;;
12535;SDS011;6334;48.696;2.114;2022-10-28T04:01:03;7.27;;;4.23;;
12535;SDS011;6334;48.696;2.114;2022-10-28T04:03:33;11.60;;;4.40;;
12535;SDS011;6334;48.696;2.114;2022-10-28T04:06:04;9.53;;;4.53;;
12535;SDS011;6334;48.696;2.114;2022-10-28T04:08:33;6.47;;;4.20;;
12535;SDS011;6334;48.696;2.114;2022-10-28T04:11:04;9.07;;;4.30;;
12535;SDS011;6334;48.696;2.114;2022-10-28T04:13:34;9.53;;;4.00;;
12535;SDS011;6334;48.696;2.114;2022-10-28T04:16:05;8.07;;;4.80;;
12535;SDS011;6334;48.696;2.114;2022-10-28T04:18:35;9.93;;;3.87;;
12535;SDS011;6334;48.696;2.114;2022-10-28T04:21:06;10.07;;;3.90;;
12535;SDS011;6334;48.696;2.114;2022-10-28T04:23:36;10.30;;;4.87;;
12535;SDS011;6334;48.696;2.114;2022-10-28T04:26:07;8.80;;;4.50;;
12535;SDS011;6334;48.696;2.114;2022-10-28T04:28:37;6.33;;;3.57;;
12535;SDS011;6334;48.696;2.114;2022-10-28T04:31:08;8.07;;;4.30;;
12535;SDS011;6334;48.696;2.114;2022-10-28T04:33:38;9.97;;;4.10;;
12535;SDS011;6334;48.696;2.114;2022-10-28T04:36:08;10.93;;;4.27;;
12535;SDS011;6334;48.696;2.114;2022-10-28T04:38:39;9.40;;;4.40;;
12535;SDS011;6334;48.696;2.114;2022-10-28T04:41:12;8.97;;;4.33;;
12535;SDS011;6334;48.696;2.114;2022-10-28T04:43:43;7.43;;;4.13;;
12535;SDS011;6334;48.696;2.114;2022-10-28T04:46:15;8.17;;;4.20;;
12535;SDS011;6334;48.696;2.114;2022-10-28T04:48:45;5.67;;;3.80;;
12535;SDS011;6334;48.696;2.114;2022-10-28T04:51:15;10.03;;;4.40;;
12535;SDS011;6334;48.696;2.114;2022-10-28T04:53:46;8.43;;;4.07;;
12535;SDS011;6334;48.696;2.114;2022-10-28T04:56:17;12.20;;;4.27;;
12535;SDS011;6334;48.696;2.114;2022-10-28T04:58:47;10.13;;;4.30;;
12535;SDS011;6334;48.696;2.114;2022-10-28T05:01:17;7.80;;;4.10;;
12535;SDS011;6334;48.696;2.114;2022-10-28T05:03:48;9.17;;;4.47;;
12535;SDS011;6334;48.696;2.114;2022-10-28T05:06:18;7.33;;;3.93;;
12535;SDS011;6334;48.696;2.114;2022-10-28T05:08:49;10.17;;;4.30;;
12535;SDS011;6334;48.696;2.114;2022-10-28T05:11:19;6.70;;;3.43;;
12535;SDS011;6334;48.696;2.114;2022-10-28T05:13:50;8.17;;;4.30;;
12535;SDS011;6334;48.696;2.114;2022-10-28T05:16:20;11.87;;;3.93;;
12535;SDS011;6334;48.696;2.114;2022-10-28T05:18:51;11.07;;;4.53;;
12535;SDS011;6334;48.696;2.114;2022-10-28T05:21:21;5.90;;;4.00;;
12535;SDS011;6334;48.696;2.114;2022-10-28T05:23:52;9.07;;;4.37;;
12535;SDS011;6334;48.696;2.114;2022-10-28T05:26:22;8.00;;;3.90;;
12535;SDS011;6334;48.696;2.114;2022-10-28T05:28:53;13.50;;;4.50;;
12535;SDS011;6334;48.696;2.114;2022-10-28T05:31:23;11.07;;;4.60;;
12535;SDS011;6334;48.696;2.114;2022-10-28T05:33:54;7.87;;;4.80;;
12535;SDS011;6334;48.696;2.114;2022-10-28T05:36:24;7.17;;;3.97;;
12535;SDS011;6334;48.696;2.114;2022-10-28T05:38:54;12.10;;;4.77;;
12535;SDS011;6334;48.696;2.114;2022-10-28T05:41:25;8.73;;;4.20;;
12535;SDS011;6334;48.696;2.114;2022-10-28T05:43:55;8.17;;;4.13;;
12535;SDS011;6334;48.696;2.114;2022-10-28T05:46:26;8.33;;;4.50;;
12535;SDS011;6334;48.696;2.114;2022-10-28T05:48:56;8.57;;;4.20;;
12535;SDS011;6334;48.696;2.114;2022-10-28T05:51:27;11.87;;;4.43;;
12535;SDS011;6334;48.696;2.114;2022-10-28T05:53:57;9.00;;;4.07;;
12535;SDS011;6334;48.696;2.114;2022-10-28T05:56:28;8.67;;;4.20;;
12535;SDS011;6334;48.696;2.114;2022-10-28T05:58:58;10.40;;;4.37;;
12535;SDS011;6334;48.696;2.114;2022-10-28T06:01:29;10.70;;;4.67;;
12535;SDS011;6334;48.696;2.114;2022-10-28T06:03:59;13.07;;;4.47;;
12535;SDS011;6334;48.696;2.114;2022-10-28T06:06:29;9.27;;;4.30;;
12535;SDS011;6334;48.696;2.114;2022-10-28T06:09:00;10.50;;;4.23;;
12535;SDS011;6334;48.696;2.114;2022-10-28T06:11:30;10.27;;;4.20;;
12535;SDS011;6334;48.696;2.114;2022-10-28T06:14:01;8.13;;;4.00;;
12535;SDS011;6334;48.696;2.114;2022-10-28T06:16:31;10.13;;;4.27;;
12535;SDS011;6334;48.696;2.114;2022-10-28T06:19:02;12.47;;;4.63;;
12535;SDS011;6334;48.696;2.114;2022-10-28T06:21:32;7.07;;;4.10;;
12535;SDS011;6334;48.696;2.114;2022-10-28T06:24:03;8.70;;;4.43;;
12535;SDS011;6334;48.696;2.114;2022-10-28T06:26:33;10.77;;;4.17;;
12535;SDS011;6334;48.696;2.114;2022-10-28T06:29:04;12.20;;;4.70;;
12535;SDS011;6334;48.696;2.114;2022-10-28T06:31:38;10.70;;;4.37;;
12535;SDS011;6334;48.696;2.114;2022-10-28T06:34:08;10.53;;;4.00;;
12535;SDS011;6334;48.696;2.114;2022-10-28T06:36:38;6.37;;;3.77;;
12535;SDS011;6334;48.696;2.114;2022-10-28T06:39:08;10.33;;;4.40;;
12535;SDS011;6334;48.696;2.114;2022-10-28T06:41:39;7.33;;;4.00;;
12535;SDS011;6334;48.696;2.114;2022-10-28T06:44:09;9.53;;;4.37;;
12535;SDS011;6334;48.696;2.114;2022-10-28T06:46:39;10.63;;;4.03;;
12535;SDS011;6334;48.696;2.114;2022-10-28T06:49:10;7.90;;;4.03;;
12535;SDS011;6334;48.696;2.114;2022-10-28T06:51:40;8.97;;;4.40;;
12535;SDS011;6334;48.696;2.114;2022-10-28T06:54:11;10.47;;;4.23;;
12535;SDS011;6334;48.696;2.114;2022-10-28T06:56:41;8.83;;;4.03;;
12535;SDS011;6334;48.696;2.114;2022-10-28T06:59:12;10.63;;;4.07;;
12535;SDS011;6334;48.696;2.114;2022-10-28T07:01:42;6.70;;;3.93;;
12535;SDS011;6334;48.696;2.114;2022-10-28T07:04:13;9.30;;;4.27;;
12535;SDS011;6334;48.696;2.114;2022-10-28T07:06:43;7.23;;;3.97;;
12535;SDS011;6334;48.696;2.114;2022-10-28T07:09:14;11.17;;;4.17;;
12535;SDS011;6334;48.696;2.114;2022-10-28T07:11:46;13.77;;;4.20;;
12535;SDS011;6334;48.696;2.114;2022-10-28T07:14:15;8.20;;;4.20;;
12535;SDS011;6334;48.696;2.114;2022-10-28T07:16:45;9.83;;;4.10;;
12535;SDS011;6334;48.696;2.114;2022-10-28T07:19:15;7.77;;;4.10;;
12535;SDS011;6334;48.696;2.114;2022-10-28T07:21:46;11.23;;;4.30;;
12535;SDS011;6334;48.696;2.114;2022-10-28T07:24:17;8.77;;;4.30;;
12535;SDS011;6334;48.696;2.114;2022-10-28T07:26:48;5.53;;;3.80;;
12535;SDS011;6334;48.696;2.114;2022-10-28T07:29:18;8.27;;;3.87;;
12535;SDS011;6334;48.696;2.114;2022-10-28T07:31:52;10.67;;;4.50;;
12535;SDS011;6334;48.696;2.114;2022-10-28T07:34:18;6.87;;;3.90;;
12535;SDS011;6334;48.696;2.114;2022-10-28T07:36:52;9.73;;;4.37;;
12535;SDS011;6334;48.696;2.114;2022-10-28T07:39:22;8.93;;;4.37;;
12535;SDS011;6334;48.696;2.114;2022-10-28T07:41:52;7.33;;;4.60;;
12535;SDS011;6334;48.696;2.114;2022-10-28T07:44:23;10.53;;;4.30;;
12535;SDS011;6334;48.696;2.114;2022-10-28T07:46:53;10.93;;;4.23;;
12535;SDS011;6334;48.696;2.114;2022-10-28T07:49:24;9.50;;;4.47;;
12535;SDS011;6334;48.696;2.114;2022-10-28T07:51:54;5.97;;;3.93;;
12535;SDS011;6334;48.696;2.114;2022-10-28T07:54:24;9.17;;;4.63;;
12535;SDS011;6334;48.696;2.114;2022-10-28T07:56:54;9.00;;;4.87;;
12535;SDS011;6334;48.696;2.114;2022-10-28T07:59:25;8.10;;;4.37;;
12535;SDS011;6334;48.696;2.114;2022-10-28T08:01:55;10.70;;;4.23;;
12535;SDS011;6334;48.696;2.114;2022-10-28T08:04:27;8.20;;;4.13;;
12535;SDS011;6334;48.696;2.114;2022-10-28T08:06:56;11.23;;;4.77;;
12535;SDS011;6334;48.696;2.114;2022-10-28T08:09:29;8.60;;;4.13;;
12535;SDS011;6334;48.696;2.114;2022-10-28T08:11:59;12.77;;;4.73;;
12535;SDS011;6334;48.696;2.114;2022-10-28T08:14:29;11.23;;;4.47;;
12535;SDS011;6334;48.696;2.114;2022-10-28T08:17:00;6.90;;;3.60;;
12535;SDS011;6334;48.696;2.114;2022-10-28T08:19:30;6.43;;;4.17;;
12535;SDS011;6334;48.696;2.114;2022-10-28T08:22:01;7.53;;;3.80;;
12535;SDS011;6334;48.696;2.114;2022-10-28T08:24:31;10.40;;;4.40;;
12535;SDS011;6334;48.696;2.114;2022-10-28T08:27:01;11.30;;;4.30;;
12535;SDS011;6334;48.696;2.114;2022-10-28T08:29:32;10.27;;;4.13;;
12535;SDS011;6334;48.696;2.114;2022-10-28T08:32:02;6.80;;;4.10;;
12535;SDS011;6334;48.696;2.114;2022-10-28T08:34:32;8.93;;;4.30;;
12535;SDS011;6334;48.696;2.114;2022-10-28T08:37:02;11.30;;;4.00;;
12535;SDS011;6334;48.696;2.114;2022-10-28T08:39:34;10.13;;;4.03;;
12535;SDS011;6334;48.696;2.114;2022-10-28T08:42:48;12.07;;;4.50;;
12535;SDS011;6334;48.696;2.114;2022-10-28T08:45:01;8.53;;;4.00;;
12535;SDS011;6334;48.696;2.114;2022-10-28T08:50:44;7.30;;;3.93;;
12535;SDS011;6334;48.696;2.114;2022-10-28T08:53:33;10.13;;;4.30;;
12535;SDS011;6334;48.696;2.114;2022-10-28T08:56:43;16.20;;;5.00;;
12535;SDS011;6334;48.696;2.114;2022-10-28T08:58:34;9.90;;;4.20;;
12535;SDS011;6334;48.696;2.114;2022-10-28T09:01:05;8.97;;;4.33;;
12535;SDS011;6334;48.696;2.114;2022-10-28T09:03:36;9.30;;;4.30;;
12535;SDS011;6334;48.696;2.114;2022-10-28T09:06:08;6.37;;;4.17;;
12535;SDS011;6334;48.696;2.114;2022-10-28T09:08:41;9.17;;;4.50;;
12535;SDS011;6334;48.696;2.114;2022-10-28T09:19:51;12.07;;;5.03;;
12535;SDS011;6334;48.696;2.114;2022-10-28T09:25:09;11.90;;;4.37;;
12535;SDS011;6334;48.696;2.114;2022-10-28T09:27:43;14.07;;;4.80;;
12535;SDS011;6334;48.696;2.114;2022-10-28T09:30:41;11.17;;;4.50;;
12535;SDS011;6334;48.696;2.114;2022-10-28T09:36:02;9.77;;;4.20;;
12535;SDS011;6334;48.696;2.114;2022-10-28T09:38:35;11.33;;;4.33;;
12535;SDS011;6334;48.696;2.114;2022-10-28T09:41:12;12.60;;;4.70;;
12535;SDS011;6334;48.696;2.114;2022-10-28T09:43:47;9.97;;;4.80;;
12535;SDS011;6334;48.696;2.114;2022-10-28T09:46:17;7.50;;;4.77;;
12535;SDS011;6334;48.696;2.114;2022-10-28T09:48:48;12.37;;;4.97;;
12535;SDS011;6334;48.696;2.114;2022-10-28T09:51:40;12.67;;;5.20;;
12535;SDS011;6334;48.696;2.114;2022-10-28T09:54:03;13.80;;;5.00;;
12535;SDS011;6334;48.696;2.114;2022-10-28T09:56:33;13.30;;;5.17;;
12535;SDS011;6334;48.696;2.114;2022-10-28T09:59:04;10.70;;;5.17;;
12535;SDS011;6334;48.696;2.114;2022-10-28T10:01:35;10.80;;;4.83;;
12535;SDS011;6334;48.696;2.114;2022-10-28T10:04:14;10.33;;;5.07;;
12535;SDS011;6334;48.696;2.114;2022-10-28T10:06:41;9.33;;;4.83;;
12535;SDS011;6334;48.696;2.114;2022-10-28T10:09:18;10.30;;;5.03;;
12535;SDS011;6334;48.696;2.114;2022-10-28T10:11:45;10.77;;;5.50;;
12535;SDS011;6334;48.696;2.114;2022-10-28T10:14:16;8.67;;;4.57;;
12535;SDS011;6334;48.696;2.114;2022-10-28T10:16:48;10.97;;;5.27;;
12535;SDS011;6334;48.696;2.114;2022-10-28T10:19:21;8.20;;;4.60;;
12535;SDS011;6334;48.696;2.114;2022-10-28T10:21:52;11.83;;;4.60;;
12535;SDS011;6334;48.696;2.114;2022-10-28T10:24:34;13.10;;;4.90;;
12535;SDS011;6334;48.696;2.114;2022-10-28T10:27:02;13.50;;;5.23;;
12535;SDS011;6334;48.696;2.114;2022-10-28T10:29:31;12.77;;;5.20;;
12535;SDS011;6334;48.696;2.114;2022-10-28T10:32:02;10.23;;;5.10;;
12535;SDS011;6334;48.696;2.114;2022-10-28T10:34:32;12.57;;;5.43;;
12535;SDS011;6334;48.696;2.114;2022-10-28T10:37:03;12.13;;;4.87;;
12535;SDS011;6334;48.696;2.114;2022-10-28T10:39:34;11.80;;;5.20;;
12535;SDS011;6334;48.696;2.114;2022-10-28T10:42:13;14.10;;;4.73;;
12535;SDS011;6334;48.696;2.114;2022-10-28T10:44:34;12.63;;;5.50;;
12535;SDS011;6334;48.696;2.114;2022-10-28T10:49:36;8.70;;;5.00;;
12535;SDS011;6334;48.696;2.114;2022-10-28T10:52:14;13.80;;;5.20;;
12535;SDS011;6334;48.696;2.114;2022-10-28T10:54:46;13.30;;;5.30;;
12535;SDS011;6334;48.696;2.114;2022-10-28T10:57:24;9.53;;;4.63;;
12535;SDS011;6334;48.696;2.114;2022-10-28T10:59:55;12.80;;;5.30;;
12535;SDS011;6334;48.696;2.114;2022-10-28T11:02:35;11.10;;;5.30;;
12535;SDS011;6334;48.696;2.114;2022-10-28T11:05:02;11.37;;;5.40;;
12535;SDS011;6334;48.696;2.114;2022-10-28T11:07:32;9.03;;;4.97;;
12535;SDS011;6334;48.696;2.114;2022-10-28T11:10:02;11.80;;;5.10;;
12535;SDS011;6334;48.696;2.114;2022-10-28T11:12:33;10.83;;;5.23;;
12535;SDS011;6334;48.696;2.114;2022-10-28T11:15:18;12.07;;;5.20;;
12535;SDS011;6334;48.696;2.114;2022-10-28T11:17:34;14.47;;;5.60;;
12535;SDS011;6334;48.696;2.114;2022-10-28T11:25:45;11.53;;;5.07;;
12535;SDS011;6334;48.696;2.114;2022-10-28T11:28:24;16.33;;;6.00;;
12535;SDS011;6334;48.696;2.114;2022-10-28T11:31:02;11.67;;;5.00;;
12535;SDS011;6334;48.696;2.114;2022-10-28T11:36:14;11.93;;;5.17;;
12535;SDS011;6334;48.696;2.114;2022-10-28T11:41:51;9.87;;;5.30;;
12535;SDS011;6334;48.696;2.114;2022-10-28T11:44:39;15.47;;;5.73;;
12535;SDS011;6334;48.696;2.114;2022-10-28T11:47:20;9.33;;;5.37;;
12535;SDS011;6334;48.696;2.114;2022-10-28T11:50:09;12.53;;;5.17;;
12535;SDS011;6334;48.696;2.114;2022-10-28T11:52:55;10.93;;;5.10;;
12535;SDS011;6334;48.696;2.114;2022-10-28T11:55:41;12.77;;;5.93;;
12535;SDS011;6334;48.696;2.114;2022-10-28T11:58:27;13.40;;;5.60;;
12535;SDS011;6334;48.696;2.114;2022-10-28T12:01:22;11.10;;;5.23;;
12535;SDS011;6334;48.696;2.114;2022-10-28T12:04:04;16.77;;;5.93;;
12535;SDS011;6334;48.696;2.114;2022-10-28T12:09:17;9.93;;;5.20;;
12535;SDS011;6334;48.696;2.114;2022-10-28T12:11:57;13.57;;;5.40;;
12535;SDS011;6334;48.696;2.114;2022-10-28T12:14:38;13.50;;;5.47;;
12535;SDS011;6334;48.696;2.114;2022-10-28T12:22:35;13.70;;;5.47;;
12535;SDS011;6334;48.696;2.114;2022-10-28T12:25:14;13.60;;;5.40;;
12535;SDS011;6334;48.696;2.114;2022-10-28T12:27:43;9.10;;;5.40;;
12535;SDS011;6334;48.696;2.114;2022-10-28T12:32:53;9.60;;;5.03;;
12535;SDS011;6334;48.696;2.114;2022-10-28T12:35:26;12.40;;;5.67;;
12535;SDS011;6334;48.696;2.114;2022-10-28T12:40:47;11.80;;;5.07;;
12535;SDS011;6334;48.696;2.114;2022-10-28T12:43:32;8.43;;;5.00;;
12535;SDS011;6334;48.696;2.114;2022-10-28T12:46:01;8.03;;;5.17;;
12535;SDS011;6334;48.696;2.114;2022-10-28T12:48:36;11.00;;;5.23;;
12535;SDS011;6334;48.696;2.114;2022-10-28T12:51:08;9.83;;;5.53;;
12535;SDS011;6334;48.696;2.114;2022-10-28T12:53:54;10.33;;;5.37;;
12535;SDS011;6334;48.696;2.114;2022-10-28T12:56:27;10.10;;;5.17;;
12535;SDS011;6334;48.696;2.114;2022-10-28T12:59:02;8.77;;;5.23;;
12535;SDS011;6334;48.696;2.114;2022-10-28T13:01:42;10.87;;;5.30;;
12535;SDS011;6334;48.696;2.114;2022-10-28T13:04:10;14.33;;;5.47;;
12535;SDS011;6334;48.696;2.114;2022-10-28T13:09:30;10.73;;;4.97;;
12535;SDS011;6334;48.696;2.114;2022-10-28T13:14:48;13.40;;;5.20;;
12535;SDS011;6334;48.696;2.114;2022-10-28T13:28:32;8.37;;;4.33;;
12535;SDS011;6334;48.696;2.114;2022-10-28T13:31:04;6.70;;;4.10;;
12535;SDS011;6334;48.696;2.114;2022-10-28T13:33:34;10.33;;;4.60;;
12535;SDS011;6334;48.696;2.114;2022-10-28T13:36:14;8.37;;;4.40;;
12535;SDS011;6334;48.696;2.114;2022-10-28T13:38:49;6.87;;;4.07;;
12535;SDS011;6334;48.696;2.114;2022-10-28T13:41:40;9.87;;;4.30;;
12535;SDS011;6334;48.696;2.114;2022-10-28T13:49:28;7.80;;;4.00;;
12535;SDS011;6334;48.696;2.114;2022-10-28T13:57:15;8.60;;;4.07;;
12535;SDS011;6334;48.696;2.114;2022-10-28T13:59:51;7.87;;;3.90;;
12535;SDS011;6334;48.696;2.114;2022-10-28T14:05:00;7.83;;;3.70;;
12535;SDS011;6334;48.696;2.114;2022-10-28T14:07:30;6.00;;;4.17;;
12535;SDS011;6334;48.696;2.114;2022-10-28T14:10:13;9.50;;;4.50;;
12535;SDS011;6334;48.696;2.114;2022-10-28T14:12:43;7.60;;;4.17;;
12535;SDS011;6334;48.696;2.114;2022-10-28T14:17:59;11.23;;;4.17;;
12535;SDS011;6334;48.696;2.114;2022-10-28T14:46:25;11.57;;;4.90;;
12535;SDS011;6334;48.696;2.114;2022-10-28T14:48:56;8.30;;;4.17;;
12535;SDS011;6334;48.696;2.114;2022-10-28T14:51:26;6.73;;;3.37;;
12535;SDS011;6334;48.696;2.114;2022-10-28T14:53:57;4.80;;;3.57;;
12535;SDS011;6334;48.696;2.114;2022-10-28T14:56:27;6.40;;;3.47;;
12535;SDS011;6334;48.696;2.114;2022-10-28T14:59:02;5.23;;;3.53;;
12535;SDS011;6334;48.696;2.114;2022-10-28T15:01:50;4.30;;;3.30;;
12535;SDS011;6334;48.696;2.114;2022-10-28T15:04:19;5.47;;;3.80;;
12535;SDS011;6334;48.696;2.114;2022-10-28T15:06:50;7.53;;;4.00;;
12535;SDS011;6334;48.696;2.114;2022-10-28T15:09:21;6.10;;;3.93;;
12535;SDS011;6334;48.696;2.114;2022-10-28T15:14:33;6.27;;;3.47;;
12535;SDS011;6334;48.696;2.114;2022-10-28T15:17:14;7.40;;;3.50;;
12535;SDS011;6334;48.696;2.114;2022-10-28T15:19:44;7.43;;;3.83;;
12535;SDS011;6334;48.696;2.114;2022-10-28T15:27:31;6.07;;;3.90;;
12535;SDS011;6334;48.696;2.114;2022-10-28T15:29:59;6.80;;;4.03;;
12535;SDS011;6334;48.696;2.114;2022-10-28T15:32:31;9.97;;;4.20;;
12535;SDS011;6334;48.696;2.114;2022-10-28T15:34:58;6.40;;;4.13;;
12535;SDS011;6334;48.696;2.114;2022-10-28T15:37:29;5.07;;;3.90;;
12535;SDS011;6334;48.696;2.114;2022-10-28T15:40:09;7.23;;;3.77;;
12535;SDS011;6334;48.696;2.114;2022-10-28T15:42:39;7.27;;;3.97;;
12535;SDS011;6334;48.696;2.114;2022-10-28T15:45:18;5.47;;;3.33;;
12535;SDS011;6334;48.696;2.114;2022-10-28T15:47:46;7.17;;;3.87;;
12535;SDS011;6334;48.696;2.114;2022-10-28T15:52:48;5.80;;;3.93;;
12535;SDS011;6334;48.696;2.114;2022-10-28T15:57:52;7.17;;;4.33;;
12535;SDS011;6334;48.696;2.114;2022-10-28T16:00:28;5.57;;;3.93;;
12535;SDS011;6334;48.696;2.114;2022-10-28T16:03:00;6.87;;;4.53;;
12535;SDS011;6334;48.696;2.114;2022-10-28T16:08:06;7.67;;;4.60;;
12535;SDS011;6334;48.696;2.114;2022-10-28T16:10:45;6.60;;;4.20;;
12535;SDS011;6334;48.696;2.114;2022-10-28T16:13:21;7.67;;;4.40;;
12535;SDS011;6334;48.696;2.114;2022-10-28T16:15:54;11.60;;;4.90;;
12535;SDS011;6334;48.696;2.114;2022-10-28T16:18:24;10.47;;;4.90;;
12535;SDS011;6334;48.696;2.114;2022-10-28T16:20:54;8.73;;;4.77;;
12535;SDS011;6334;48.696;2.114;2022-10-28T16:23:26;6.50;;;4.17;;
12535;SDS011;6334;48.696;2.114;2022-10-28T16:25:55;8.13;;;4.50;;
12535;SDS011;6334;48.696;2.114;2022-10-28T16:28:25;8.67;;;4.60;;
12535;SDS011;6334;48.696;2.114;2022-10-28T16:30:56;7.17;;;4.17;;
12535;SDS011;6334;48.696;2.114;2022-10-28T16:33:26;10.07;;;5.13;;
12535;SDS011;6334;48.696;2.114;2022-10-28T16:35:56;8.53;;;4.50;;
12535;SDS011;6334;48.696;2.114;2022-10-28T16:38:28;8.70;;;4.63;;
12535;SDS011;6334;48.696;2.114;2022-10-28T16:41:00;9.33;;;4.77;;
12535;SDS011;6334;48.696;2.114;2022-10-28T16:43:28;8.10;;;4.90;;
12535;SDS011;6334;48.696;2.114;2022-10-28T16:45:58;11.43;;;4.70;;
12535;SDS011;6334;48.696;2.114;2022-10-28T16:48:29;8.87;;;4.73;;
12535;SDS011;6334;48.696;2.114;2022-10-28T16:51:02;9.37;;;5.80;;
12535;SDS011;6334;48.696;2.114;2022-10-28T16:53:32;8.00;;;4.93;;
12535;SDS011;6334;48.696;2.114;2022-10-28T16:56:02;8.73;;;5.00;;
12535;SDS011;6334;48.696;2.114;2022-10-28T16:58:33;8.27;;;5.27;;
12535;SDS011;6334;48.696;2.114;2022-10-28T17:01:03;9.07;;;4.87;;
12535;SDS011;6334;48.696;2.114;2022-10-28T17:03:34;7.87;;;4.87;;
12535;SDS011;6334;48.696;2.114;2022-10-28T17:06:04;9.10;;;5.00;;
12535;SDS011;6334;48.696;2.114;2022-10-28T17:08:35;9.90;;;5.10;;
12535;SDS011;6334;48.696;2.114;2022-10-28T17:11:05;8.60;;;4.50;;
12535;SDS011;6334;48.696;2.114;2022-10-28T17:13:36;9.03;;;4.67;;
12535;SDS011;6334;48.696;2.114;2022-10-28T17:16:06;9.67;;;4.93;;
12535;SDS011;6334;48.696;2.114;2022-10-28T17:18:37;6.97;;;4.70;;
12535;SDS011;6334;48.696;2.114;2022-10-28T17:21:06;9.67;;;4.63;;
12535;SDS011;6334;48.696;2.114;2022-10-28T17:23:38;8.33;;;4.30;;
12535;SDS011;6334;48.696;2.114;2022-10-28T17:26:07;9.20;;;4.67;;
12535;SDS011;6334;48.696;2.114;2022-10-28T17:28:38;11.00;;;4.83;;
12535;SDS011;6334;48.696;2.114;2022-10-28T17:31:08;7.70;;;4.70;;
12535;SDS011;6334;48.696;2.114;2022-10-28T17:33:39;9.13;;;5.03;;
12535;SDS011;6334;48.696;2.114;2022-10-28T17:36:09;7.27;;;4.40;;
12535;SDS011;6334;48.696;2.114;2022-10-28T17:38:39;9.20;;;4.57;;
12535;SDS011;6334;48.696;2.114;2022-10-28T17:41:10;8.20;;;4.70;;
12535;SDS011;6334;48.696;2.114;2022-10-28T17:43:40;9.30;;;4.50;;
12535;SDS011;6334;48.696;2.114;2022-10-28T17:46:12;9.20;;;4.63;;
12535;SDS011;6334;48.696;2.114;2022-10-28T17:48:42;9.10;;;4.97;;
12535;SDS011;6334;48.696;2.114;2022-10-28T17:51:13;9.73;;;4.83;;
12535;SDS011;6334;48.696;2.114;2022-10-28T17:53:43;7.57;;;4.67;;
12535;SDS011;6334;48.696;2.114;2022-10-28T17:56:13;7.80;;;4.80;;
12535;SDS011;6334;48.696;2.114;2022-10-28T17:58:43;12.07;;;5.40;;
12535;SDS011;6334;48.696;2.114;2022-10-28T18:01:15;8.23;;;4.70;;
12535;SDS011;6334;48.696;2.114;2022-10-28T18:03:48;7.30;;;4.63;;